createdAt,value
2017-08-18T00:00:22.631Z,991.89
2017-08-18T00:01:22.670Z,991.88
2017-08-18T00:02:22.615Z,991.88
2017-08-18T00:03:22.248Z,991.81
2017-08-18T00:04:22.233Z,991.88
2017-08-18T00:05:22.884Z,991.87
2017-08-18T00:06:22.225Z,991.94
2017-08-18T00:07:22.578Z,991.83
2017-08-18T00:08:22.726Z,991.82
2017-08-18T00:09:22.675Z,991.78
2017-08-18T00:10:22.708Z,991.90
2017-08-18T00:11:23.113Z,991.89
2017-08-18T00:12:22.853Z,991.89
2017-08-18T00:13:23.199Z,991.90
2017-08-18T00:14:23.043Z,991.90
2017-08-18T00:15:23.096Z,991.99
2017-08-18T00:16:23.045Z,991.93
2017-08-18T00:17:23.095Z,991.93
2017-08-18T00:18:22.828Z,991.96
2017-08-18T00:19:22.770Z,992.00
2017-08-18T00:20:22.721Z,991.95
2017-08-18T00:21:22.288Z,991.88
2017-08-18T00:22:22.228Z,991.95
2017-08-18T00:23:22.261Z,991.89
2017-08-18T00:24:22.303Z,991.99
2017-08-18T00:25:22.352Z,991.91
2017-08-18T00:26:22.240Z,991.88
2017-08-18T00:27:22.689Z,991.91
2017-08-18T00:28:23.126Z,991.94
2017-08-18T00:29:23.063Z,991.94
2017-08-18T00:30:23.106Z,991.89
2017-08-18T00:31:23.118Z,991.91
2017-08-18T00:32:23.158Z,991.91
2017-08-18T00:33:23.293Z,991.89
2017-08-18T00:34:23.160Z,991.87
2017-08-18T00:35:23.207Z,991.81
2017-08-18T00:36:22.749Z,991.84
2017-08-18T00:37:22.797Z,991.78
2017-08-18T00:38:22.278Z,991.89
2017-08-18T00:39:22.310Z,991.82
2017-08-18T00:40:22.364Z,991.86
2017-08-18T00:41:22.344Z,991.81
2017-08-18T00:42:22.410Z,991.86
2017-08-18T00:43:22.362Z,991.80
2017-08-18T00:44:22.699Z,991.83
2017-08-18T00:45:22.762Z,991.85
2017-08-18T00:46:23.098Z,991.75
2017-08-18T00:47:23.209Z,991.68
2017-08-18T00:48:23.175Z,991.76
2017-08-18T00:49:23.212Z,991.73
2017-08-18T00:50:23.286Z,991.70
2017-08-18T00:51:23.158Z,991.77
2017-08-18T00:52:23.302Z,991.77
2017-08-18T00:53:22.848Z,991.75
2017-08-18T00:54:22.712Z,991.73
2017-08-18T00:55:22.879Z,991.78
2017-08-18T00:56:22.353Z,991.80
2017-08-18T00:57:22.412Z,991.76
2017-08-18T00:58:22.346Z,991.76
2017-08-18T00:59:22.382Z,991.72
2017-08-18T01:02:33.817Z,991.78
2017-08-18T01:02:34.427Z,991.73
2017-08-18T01:02:35.032Z,991.70
2017-08-18T01:05:56.313Z,991.73
2017-08-18T01:05:56.915Z,991.74
2017-08-18T01:05:57.527Z,991.75
2017-08-18T01:08:36.497Z,991.76
2017-08-18T01:08:37.104Z,991.76
2017-08-18T01:08:37.710Z,991.78
2017-08-18T01:11:46.237Z,991.79
2017-08-18T01:11:46.845Z,991.80
2017-08-18T01:11:47.452Z,991.79
2017-08-18T01:14:37.400Z,991.84
2017-08-18T01:14:38.008Z,991.84
2017-08-18T01:14:38.615Z,991.83
2017-08-18T01:17:49.848Z,991.87
2017-08-18T01:17:50.455Z,991.81
2017-08-18T01:17:51.066Z,991.81
2017-08-18T01:20:32.805Z,991.83
2017-08-18T01:20:33.415Z,991.85
2017-08-18T01:20:34.022Z,991.89
2017-08-18T01:23:53.290Z,991.83
2017-08-18T01:23:53.900Z,991.84
2017-08-18T01:23:54.607Z,991.81
2017-08-18T01:27:05.445Z,991.80
2017-08-18T01:27:06.053Z,991.81
2017-08-18T01:27:06.660Z,991.71
2017-08-18T01:29:56.283Z,991.77
2017-08-18T01:29:56.893Z,991.74
2017-08-18T01:29:57.699Z,991.71
2017-08-18T01:32:35.500Z,991.66
2017-08-18T01:32:36.108Z,991.66
2017-08-18T01:32:36.714Z,991.67
2017-08-18T01:35:57.791Z,991.61
2017-08-18T01:35:58.430Z,991.67
2017-08-18T01:35:59.040Z,991.67
2017-08-18T01:39:07.159Z,991.59
2017-08-18T01:39:07.768Z,991.60
2017-08-18T01:39:08.377Z,991.61
2017-08-18T01:42:01.368Z,991.58
2017-08-18T01:42:02.077Z,991.63
2017-08-18T01:42:02.689Z,991.56
2017-08-18T01:44:33.534Z,991.59
2017-08-18T01:44:34.142Z,991.57
2017-08-18T01:44:34.749Z,991.60
2017-08-18T01:46:34.227Z,991.59
2017-08-18T01:46:34.836Z,991.56
2017-08-18T01:47:22.549Z,991.61
2017-08-18T01:50:30.976Z,991.62
2017-08-18T01:50:31.584Z,991.66
2017-08-18T01:50:32.198Z,991.59
2017-08-18T01:52:31.778Z,991.63
2017-08-18T01:52:32.386Z,991.61
2017-08-18T01:53:22.509Z,991.63
2017-08-18T01:56:31.231Z,991.75
2017-08-18T01:56:31.942Z,991.73
2017-08-18T01:56:32.553Z,991.66
2017-08-18T01:58:32.238Z,991.69
2017-08-18T01:58:32.843Z,991.69
2017-08-18T01:59:22.644Z,991.66
2017-08-18T02:00:23.474Z,991.66
2017-08-18T02:01:23.378Z,991.66
2017-08-18T02:02:23.383Z,991.60
2017-08-18T02:03:22.915Z,991.66
2017-08-18T02:04:23.459Z,991.58
2017-08-18T02:05:22.994Z,991.59
2017-08-18T02:06:22.534Z,991.60
2017-08-18T02:07:23.005Z,991.59
2017-08-18T02:08:22.642Z,991.63
2017-08-18T02:09:22.678Z,991.68
2017-08-18T02:10:22.561Z,991.69
2017-08-18T02:11:22.996Z,991.59
2017-08-18T02:12:23.053Z,991.64
2017-08-18T02:13:22.989Z,991.65
2017-08-18T02:14:23.381Z,991.67
2017-08-18T02:15:23.433Z,991.71
2017-08-18T02:16:23.370Z,991.71
2017-08-18T02:17:23.414Z,991.68
2017-08-18T02:18:23.482Z,991.69
2017-08-18T02:19:23.549Z,991.65
2017-08-18T02:20:23.413Z,991.63
2017-08-18T02:21:23.478Z,991.62
2017-08-18T02:22:23.527Z,991.60
2017-08-18T02:23:22.988Z,991.58
2017-08-18T02:24:23.040Z,991.60
2017-08-18T02:25:22.605Z,991.57
2017-08-18T02:26:22.647Z,991.58
2017-08-18T02:27:22.702Z,991.64
2017-08-18T02:28:22.641Z,991.62
2017-08-18T02:29:22.995Z,991.56
2017-08-18T02:30:23.035Z,991.67
2017-08-18T02:31:23.073Z,991.62
2017-08-18T02:32:23.449Z,991.65
2017-08-18T02:33:23.440Z,991.60
2017-08-18T02:34:23.504Z,991.57
2017-08-18T02:35:23.458Z,991.54
2017-08-18T02:36:23.434Z,991.55
2017-08-18T02:37:23.598Z,991.55
2017-08-18T02:38:23.037Z,991.56
2017-08-18T02:39:23.076Z,991.60
2017-08-18T02:40:23.038Z,991.57
2017-08-18T02:41:28.821Z,991.57
2017-08-18T02:42:22.854Z,991.59
2017-08-18T02:43:23.108Z,991.59
2017-08-18T02:44:23.051Z,991.50
2017-08-18T02:45:23.097Z,991.61
2017-08-18T02:46:23.038Z,991.61
2017-08-18T02:47:23.176Z,991.56
2017-08-18T02:48:23.134Z,991.56
2017-08-18T02:49:23.091Z,991.55
2017-08-18T02:50:23.495Z,991.51
2017-08-18T02:51:23.226Z,991.56
2017-08-18T02:52:23.572Z,991.56
2017-08-18T02:53:23.516Z,991.57
2017-08-18T02:54:23.468Z,991.52
2017-08-18T02:55:23.608Z,991.58
2017-08-18T02:56:23.556Z,991.59
2017-08-18T02:57:23.092Z,991.61
2017-08-18T02:58:23.146Z,991.53
2017-08-18T02:59:23.092Z,991.48
2017-08-18T03:00:23.294Z,991.47
2017-08-18T03:01:22.736Z,991.50
2017-08-18T03:02:22.777Z,991.53
2017-08-18T03:03:22.760Z,991.52
2017-08-18T03:04:22.700Z,991.52
2017-08-18T03:05:23.134Z,991.54
2017-08-18T03:06:23.172Z,991.58
2017-08-18T03:07:23.205Z,991.57
2017-08-18T03:08:23.548Z,991.59
2017-08-18T03:09:23.595Z,991.53
2017-08-18T03:10:23.556Z,991.55
2017-08-18T03:11:23.537Z,991.52
2017-08-18T03:12:23.781Z,991.52
2017-08-18T03:13:23.218Z,991.55
2017-08-18T03:14:23.599Z,991.61
2017-08-18T03:15:23.158Z,991.58
2017-08-18T03:16:23.205Z,991.67
2017-08-18T03:17:22.741Z,991.62
2017-08-18T03:18:22.716Z,991.68
2017-08-18T03:19:22.864Z,991.61
2017-08-18T03:20:22.731Z,991.56
2017-08-18T03:21:23.176Z,991.64
2017-08-18T03:22:23.273Z,991.60
2017-08-18T03:23:23.314Z,991.64
2017-08-18T03:24:23.182Z,991.61
2017-08-18T03:25:23.303Z,991.64
2017-08-18T03:26:23.559Z,991.66
2017-08-18T03:27:23.713Z,991.68
2017-08-18T03:28:23.573Z,991.75
2017-08-18T03:29:23.772Z,991.73
2017-08-18T03:30:23.618Z,991.69
2017-08-18T03:31:23.602Z,991.74
2017-08-18T03:32:23.241Z,991.75
2017-08-18T03:33:23.187Z,991.63
2017-08-18T03:34:23.245Z,991.70
2017-08-18T03:35:22.784Z,991.63
2017-08-18T03:36:22.847Z,991.71
2017-08-18T03:37:22.784Z,991.68
2017-08-18T03:38:22.828Z,991.66
2017-08-18T03:39:38.017Z,991.68
2017-08-18T03:40:22.823Z,991.69
2017-08-18T03:41:23.582Z,991.68
2017-08-18T03:42:23.328Z,991.70
2017-08-18T03:43:23.668Z,991.71
2017-08-18T03:44:23.613Z,991.70
2017-08-18T03:45:23.608Z,991.74
2017-08-18T03:46:23.661Z,991.73
2017-08-18T03:47:23.814Z,991.73
2017-08-18T03:48:23.771Z,991.70
2017-08-18T03:49:23.235Z,991.65
2017-08-18T03:50:23.296Z,991.76
2017-08-18T03:51:06.603Z,991.76
2017-08-18T03:53:01.233Z,991.71
2017-08-18T03:53:01.838Z,991.67
2017-08-18T03:53:23.000Z,991.78
2017-08-18T03:54:23.268Z,991.76
2017-08-18T03:55:23.243Z,991.79
2017-08-18T03:56:23.284Z,991.76
2017-08-18T03:57:23.221Z,991.74
2017-08-18T03:58:23.435Z,991.78
2017-08-18T03:59:23.303Z,991.83
2017-08-18T04:00:23.671Z,991.79
2017-08-18T04:01:23.830Z,991.79
2017-08-18T04:02:23.709Z,991.79
2017-08-18T04:03:23.676Z,991.74
2017-08-18T04:04:23.739Z,991.85
2017-08-18T04:05:23.704Z,991.82
2017-08-18T04:06:23.856Z,991.79
2017-08-18T04:07:23.311Z,991.78
2017-08-18T04:08:23.264Z,991.75
2017-08-18T04:09:23.305Z,991.76
2017-08-18T04:10:23.349Z,991.67
2017-08-18T04:11:22.898Z,991.67
2017-08-18T04:12:22.955Z,991.55
2017-08-18T04:13:22.909Z,991.54
2017-08-18T04:14:22.875Z,991.58
2017-08-18T04:15:23.428Z,991.58
2017-08-18T04:16:23.465Z,991.58
2017-08-18T04:17:23.772Z,991.60
2017-08-18T04:18:23.414Z,991.62
2017-08-18T04:19:23.791Z,991.58
2017-08-18T04:20:23.745Z,991.58
2017-08-18T04:21:23.807Z,991.61
2017-08-18T04:22:23.868Z,991.60
2017-08-18T04:23:23.767Z,991.65
2017-08-18T04:24:23.818Z,991.66
2017-08-18T04:25:23.432Z,991.58
2017-08-18T04:26:23.494Z,991.58
2017-08-18T04:27:23.460Z,991.63
2017-08-18T04:28:23.420Z,991.63
2017-08-18T04:29:22.991Z,991.61
2017-08-18T04:30:23.010Z,991.65
2017-08-18T04:31:23.698Z,991.63
2017-08-18T04:32:23.158Z,991.55
2017-08-18T04:33:23.820Z,991.51
2017-08-18T04:34:23.012Z,991.56
2017-08-18T04:35:23.787Z,991.60
2017-08-18T04:36:23.886Z,991.56
2017-08-18T04:37:23.626Z,991.62
2017-08-18T04:38:23.642Z,991.62
2017-08-18T04:39:23.889Z,991.59
2017-08-18T04:40:23.840Z,991.59
2017-08-18T04:41:23.913Z,991.61
2017-08-18T04:42:23.380Z,991.52
2017-08-18T04:43:23.470Z,991.51
2017-08-18T04:44:23.435Z,991.51
2017-08-18T04:45:22.987Z,991.42
2017-08-18T04:46:24.203Z,991.48
2017-08-18T04:47:23.048Z,991.45
2017-08-18T04:48:23.025Z,991.44
2017-08-18T04:49:23.023Z,991.40
2017-08-18T04:50:23.023Z,991.38
2017-08-18T04:51:23.530Z,991.33
2017-08-18T04:52:23.477Z,991.27
2017-08-18T04:53:23.873Z,991.33
2017-08-18T04:54:23.658Z,991.36
2017-08-18T04:55:23.831Z,991.33
2017-08-18T04:56:23.802Z,991.37
2017-08-18T04:57:23.986Z,991.33
2017-08-18T04:58:23.894Z,991.37
2017-08-18T04:59:23.983Z,991.33
2017-08-18T05:00:23.488Z,991.38
2017-08-18T05:01:23.480Z,991.45
2017-08-18T05:02:23.484Z,991.40
2017-08-18T05:03:24.165Z,991.41
2017-08-18T05:04:23.044Z,991.35
2017-08-18T05:05:23.041Z,991.40
2017-08-18T05:06:23.217Z,991.42
2017-08-18T05:07:23.099Z,991.38
2017-08-18T05:08:23.100Z,991.37
2017-08-18T05:09:23.578Z,991.35
2017-08-18T05:10:23.573Z,991.38
2017-08-18T05:11:23.887Z,991.40
2017-08-18T05:12:23.741Z,991.31
2017-08-18T05:13:23.965Z,991.34
2017-08-18T05:14:24.075Z,991.31
2017-08-18T05:15:23.881Z,991.29
2017-08-18T05:16:25.098Z,991.37
2017-08-18T05:17:23.081Z,991.34
2017-08-18T05:18:23.905Z,991.33
2017-08-18T05:19:23.548Z,991.34
2017-08-18T05:20:23.524Z,991.34
2017-08-18T05:21:23.559Z,991.38
2017-08-18T05:22:23.624Z,991.35
2017-08-18T05:23:23.108Z,991.34
2017-08-18T05:24:23.128Z,991.37
2017-08-18T05:25:23.138Z,991.31
2017-08-18T05:26:23.876Z,991.29
2017-08-18T05:27:23.094Z,991.29
2017-08-18T05:28:23.574Z,991.28
2017-08-18T05:29:23.763Z,991.24
2017-08-18T05:30:23.745Z,991.23
2017-08-18T05:31:29.687Z,991.21
2017-08-18T05:32:23.110Z,991.21
2017-08-18T05:33:24.448Z,991.12
2017-08-18T05:34:23.995Z,991.12
2017-08-18T05:35:23.544Z,991.14
2017-08-18T05:36:23.522Z,991.11
2017-08-18T05:37:23.606Z,991.10
2017-08-18T05:38:23.585Z,991.06
2017-08-18T05:39:23.150Z,991.07
2017-08-18T05:40:23.227Z,991.07
2017-08-18T05:41:23.194Z,991.12
2017-08-18T05:42:23.277Z,991.13
2017-08-18T05:43:23.279Z,991.02
2017-08-18T05:44:23.133Z,991.02
2017-08-18T05:45:23.685Z,991.04
2017-08-18T05:46:24.111Z,991.11
2017-08-18T05:47:24.043Z,991.14
2017-08-18T05:48:23.744Z,991.14
2017-08-18T05:49:24.077Z,991.10
2017-08-18T05:50:24.139Z,991.09
2017-08-18T05:51:24.019Z,991.07
2017-08-18T05:52:24.276Z,991.09
2017-08-18T05:53:24.084Z,991.11
2017-08-18T05:54:23.650Z,991.05
2017-08-18T05:55:23.665Z,991.13
2017-08-18T05:56:23.667Z,991.10
2017-08-18T05:57:23.239Z,991.18
2017-08-18T05:58:23.835Z,991.08
2017-08-18T05:59:23.895Z,991.19
2017-08-18T06:00:23.314Z,991.16
2017-08-18T06:01:23.375Z,991.15
2017-08-18T06:02:23.279Z,991.15
2017-08-18T06:03:23.990Z,991.10
2017-08-18T06:04:23.988Z,991.05
2017-08-18T06:05:24.065Z,991.12
2017-08-18T06:06:25.739Z,991.03
2017-08-18T06:07:25.243Z,991.11
2017-08-18T06:08:23.300Z,991.12
2017-08-18T06:09:24.077Z,991.03
2017-08-18T06:10:24.138Z,991.03
2017-08-18T06:11:25.199Z,991.06
2017-08-18T07:08:43.966Z,990.65
2017-08-18T07:09:15.130Z,990.62
2017-08-18T07:10:08.092Z,990.72
2017-08-18T07:11:04.559Z,990.61
2017-08-18T07:11:43.883Z,990.64
2017-08-18T07:12:43.758Z,990.64
2017-08-18T07:14:04.717Z,990.55
2017-08-18T07:14:43.796Z,990.52
2017-08-18T07:15:44.158Z,990.54
2017-08-18T07:17:04.635Z,990.53
2017-08-18T07:18:04.738Z,990.58
2017-08-18T07:18:43.845Z,990.49
2017-08-18T07:19:43.760Z,990.53
2017-08-18T07:21:06.934Z,990.47
2017-08-18T07:21:43.963Z,990.49
2017-08-18T07:22:43.707Z,990.48
2017-08-18T07:24:04.576Z,990.51
2017-08-18T07:25:05.570Z,990.51
2017-08-18T07:25:44.232Z,990.50
2017-08-18T07:26:43.858Z,990.48
2017-08-18T07:28:04.687Z,990.41
2017-08-18T07:29:04.531Z,990.39
2017-08-18T07:29:44.278Z,990.41
2017-08-18T07:30:43.773Z,990.53
2017-08-18T07:32:04.834Z,990.45
2017-08-18T07:32:43.823Z,990.44
2017-08-18T07:33:44.305Z,990.45
2017-08-18T07:35:04.531Z,990.41
2017-08-18T07:36:04.862Z,990.32
2017-08-18T07:36:43.920Z,990.38
2017-08-18T07:37:44.127Z,990.36
2017-08-18T07:39:04.611Z,990.26
2017-08-18T07:40:04.822Z,990.26
2017-08-18T07:40:43.792Z,990.38
2017-08-18T07:42:04.639Z,990.39
2017-08-18T07:42:42.043Z,990.39
2017-08-18T07:43:33.788Z,990.41
2017-08-18T07:44:52.773Z,990.30
2017-08-18T07:46:04.953Z,990.34
2017-08-18T07:47:04.563Z,990.35
2017-08-18T07:47:44.199Z,990.38
2017-08-18T07:48:43.865Z,990.32
2017-08-18T07:50:04.746Z,990.41
2017-08-18T07:50:43.812Z,990.39
2017-08-18T07:51:44.006Z,990.40
2017-08-18T07:53:04.672Z,990.31
2017-08-18T07:54:04.824Z,990.40
2017-08-18T07:54:43.979Z,990.39
2017-08-18T07:55:44.460Z,990.42
2017-08-18T07:57:04.608Z,990.33
2017-08-18T07:58:04.802Z,990.37
2017-08-18T07:58:43.836Z,990.43
2017-08-18T08:00:04.673Z,990.43
2017-08-18T08:01:04.696Z,990.41
2017-08-18T08:01:44.020Z,990.41
2017-08-18T08:02:43.907Z,990.43
2017-08-18T08:04:04.800Z,990.40
2017-08-18T08:05:04.781Z,990.40
2017-08-18T08:05:44.050Z,990.53
2017-08-18T08:06:43.897Z,990.55
2017-08-18T08:08:04.780Z,990.50
2017-08-18T08:08:42.322Z,990.50
2017-08-18T08:09:34.171Z,990.44
2017-08-18T08:10:53.478Z,990.35
2017-08-18T08:12:04.638Z,990.39
2017-08-18T08:13:04.642Z,990.40
2017-08-18T08:13:43.920Z,990.36
2017-08-18T08:14:43.972Z,990.40
2017-08-18T08:16:04.914Z,990.34
2017-08-18T08:17:04.726Z,990.29
2017-08-18T08:17:44.146Z,990.32
2017-08-18T08:18:43.964Z,990.32
2017-08-18T08:20:04.889Z,990.30
2017-08-18T08:21:04.745Z,990.31
2017-08-18T08:21:43.975Z,990.23
2017-08-18T08:22:43.984Z,990.31
2017-08-18T08:24:04.810Z,990.28
2017-08-18T08:25:04.781Z,990.36
2017-08-18T08:25:44.200Z,990.31
2017-08-18T08:26:43.994Z,990.28
2017-08-18T08:28:04.963Z,990.22
2017-08-18T08:28:44.029Z,990.20
2017-08-18T08:29:56.219Z,990.35
2017-08-18T08:30:48.130Z,990.31
2017-08-18T08:32:04.860Z,990.30
2017-08-18T08:33:04.754Z,990.30
2017-08-18T08:33:44.046Z,990.35
2017-08-18T08:34:44.108Z,990.35
2017-08-18T08:36:04.795Z,990.33
2017-08-18T08:37:04.745Z,990.36
2017-08-18T08:37:44.173Z,990.36
2017-08-18T08:38:43.976Z,990.38
2017-08-18T08:40:04.793Z,990.32
2017-08-18T08:41:04.746Z,990.29
2017-08-18T08:41:44.116Z,990.41
2017-08-18T08:42:44.005Z,990.47
2017-08-18T08:44:04.782Z,990.44
2017-08-18T08:45:04.875Z,990.48
2017-08-18T08:45:44.052Z,990.38
2017-08-18T08:46:44.022Z,990.47
2017-08-18T08:48:04.957Z,990.40
2017-08-18T08:49:04.804Z,990.39
2017-08-18T08:49:50.087Z,990.34
2017-08-18T08:50:44.040Z,990.28
2017-08-18T08:52:04.931Z,990.25
2017-08-18T08:53:04.932Z,990.28
2017-08-18T08:53:44.083Z,990.26
2017-08-18T08:55:04.832Z,990.24
2017-08-18T08:56:04.955Z,990.31
2017-08-18T08:56:44.107Z,990.26
2017-08-18T08:57:44.022Z,990.27
2017-08-18T08:59:04.856Z,990.24
2017-08-18T09:00:04.870Z,990.27
2017-08-18T09:00:44.804Z,990.23
2017-08-18T09:01:45.117Z,990.24
2017-08-18T09:03:04.893Z,990.20
2017-08-18T09:04:04.992Z,990.28
2017-08-18T09:04:44.096Z,990.21
2017-08-18T09:05:44.385Z,990.36
2017-08-18T09:07:04.879Z,990.29
2017-08-18T09:08:04.869Z,990.23
2017-08-18T09:08:44.069Z,990.25
2017-08-18T09:09:44.134Z,990.23
2017-08-18T09:11:04.953Z,990.24
2017-08-18T09:12:05.114Z,990.10
2017-08-18T09:12:44.219Z,990.17
2017-08-18T09:14:05.121Z,990.16
2017-08-18T09:15:05.007Z,990.12
2017-08-18T09:15:44.353Z,990.09
2017-08-18T09:16:44.218Z,990.07
2017-08-18T09:18:04.965Z,990.05
2017-08-18T09:19:05.042Z,990.02
2017-08-18T09:19:44.380Z,989.98
2017-08-18T09:20:44.543Z,989.94
2017-08-18T09:22:05.003Z,989.95
2017-08-18T09:23:05.001Z,989.97
2017-08-18T09:23:44.202Z,989.95
2017-08-18T09:24:44.230Z,989.93
2017-08-18T09:26:04.955Z,989.98
2017-08-18T09:27:04.893Z,989.99
2017-08-18T09:27:44.240Z,989.99
2017-08-18T09:28:44.230Z,990.03
2017-08-18T09:30:05.245Z,989.92
2017-08-18T09:31:04.925Z,989.94
2017-08-18T09:31:44.259Z,989.89
2017-08-18T09:32:44.169Z,989.81
2017-08-18T09:34:05.115Z,989.85
2017-08-18T09:35:04.996Z,989.86
2017-08-18T09:35:44.305Z,989.84
2017-08-18T09:36:44.261Z,989.87
2017-08-18T09:38:05.329Z,989.83
2017-08-18T09:39:05.004Z,989.92
2017-08-18T09:39:44.352Z,989.79
2017-08-18T09:40:44.266Z,989.85
2017-08-18T09:42:05.085Z,989.80
2017-08-18T09:42:44.174Z,989.91
2017-08-18T09:43:44.351Z,989.77
2017-08-18T09:45:05.025Z,989.78
2017-08-18T09:46:05.067Z,989.80
2017-08-18T09:46:44.212Z,989.73
2017-08-18T09:47:44.369Z,989.73
2017-08-18T09:49:05.051Z,989.81
2017-08-18T09:50:05.126Z,989.72
2017-08-18T09:50:44.249Z,989.73
2017-08-18T09:52:05.208Z,989.71
2017-08-18T09:53:04.990Z,989.78
2017-08-18T09:53:44.226Z,989.71
2017-08-18T09:54:44.284Z,989.76
2017-08-18T09:56:05.260Z,989.65
2017-08-18T09:57:05.010Z,989.70
2017-08-18T09:57:44.274Z,989.64
2017-08-18T09:58:44.250Z,989.61
2017-08-18T10:00:05.080Z,989.63
2017-08-18T10:00:44.323Z,989.62
2017-08-18T10:01:44.486Z,989.59
2017-08-18T10:03:04.947Z,989.54
2017-08-18T10:04:05.114Z,989.53
2017-08-18T10:04:44.219Z,989.45
2017-08-18T10:05:44.320Z,989.39
2017-08-18T10:07:04.972Z,989.39
2017-08-18T10:07:42.477Z,989.39
2017-08-18T10:08:34.164Z,989.39
2017-08-18T10:09:53.184Z,989.41
2017-08-18T10:11:04.874Z,989.29
2017-08-18T10:12:05.030Z,989.27
2017-08-18T10:12:44.217Z,989.23
2017-08-18T10:13:44.353Z,989.15
2017-08-18T10:15:05.067Z,989.15
2017-08-18T10:16:05.140Z,989.22
2017-08-18T10:16:44.332Z,989.16
2017-08-18T10:17:44.382Z,989.21
2017-08-18T10:19:04.999Z,989.29
2017-08-18T10:20:05.233Z,989.28
2017-08-18T10:20:44.354Z,989.18
2017-08-18T10:21:44.412Z,989.21
2017-08-18T10:23:05.164Z,989.30
2017-08-18T10:24:05.202Z,989.27
2017-08-18T10:24:44.358Z,989.43
2017-08-18T10:25:44.458Z,989.43
2017-08-18T10:27:05.194Z,989.51
2017-08-18T10:28:05.291Z,989.46
2017-08-18T10:28:44.362Z,989.46
2017-08-18T10:29:44.486Z,989.49
2017-08-18T10:31:05.208Z,989.49
2017-08-18T10:31:42.855Z,989.49
2017-08-18T10:32:34.725Z,989.49
2017-08-18T10:33:53.848Z,989.48
2017-08-18T17:16:55.746Z,989.48
2017-08-18T17:18:15.781Z,986.29
2017-08-18T17:18:24.116Z,986.26
2017-08-18T17:19:24.917Z,986.33
2017-08-18T17:20:24.398Z,986.23
2017-08-18T17:21:25.639Z,986.24
2017-08-18T17:22:25.621Z,986.15
2017-08-18T17:23:25.673Z,986.20
2017-08-18T17:24:25.682Z,985.98
2017-08-18T17:25:25.805Z,985.85
2017-08-18T17:26:25.246Z,985.80
2017-08-18T17:27:25.275Z,985.77
2017-08-18T17:28:25.221Z,985.78
2017-08-18T17:29:25.757Z,985.93
2017-08-18T17:30:25.897Z,985.96
2017-08-18T17:31:25.730Z,986.03
2017-08-18T17:32:26.080Z,985.91
2017-08-18T17:33:25.981Z,986.03
2017-08-18T17:34:26.119Z,986.08
2017-08-18T17:35:26.190Z,986.29
2017-08-18T17:36:26.126Z,986.48
2017-08-18T17:37:26.183Z,986.61
2017-08-18T17:38:25.769Z,986.46
2017-08-18T17:39:25.658Z,986.30
2017-08-18T17:40:25.678Z,986.26
2017-08-18T17:41:26.100Z,986.45
2017-08-18T17:42:25.924Z,986.60
2017-08-18T17:43:25.277Z,986.56
2017-08-18T17:44:25.352Z,986.58
2017-08-18T17:45:25.225Z,986.55
2017-08-18T17:46:25.696Z,986.59
2017-08-18T17:47:25.727Z,986.51
2017-08-18T17:48:26.067Z,986.45
2017-08-18T17:49:26.086Z,986.46
2017-08-18T17:50:25.822Z,986.43
2017-08-18T17:51:26.015Z,986.38
2017-08-18T17:52:25.937Z,986.37
2017-08-18T17:53:26.148Z,986.51
2017-08-18T17:54:26.135Z,986.65
2017-08-18T17:55:26.161Z,986.64
2017-08-18T17:56:25.664Z,986.76
2017-08-18T17:57:25.732Z,986.71
2017-08-18T17:58:25.686Z,986.83
2017-08-18T17:59:25.296Z,986.88
2017-08-18T18:00:25.317Z,986.85
2017-08-18T18:01:25.358Z,986.95
2017-08-18T18:02:25.383Z,987.02
2017-08-18T18:03:25.328Z,987.09
2017-08-18T18:04:25.703Z,987.06
2017-08-18T18:05:26.074Z,986.97
2017-08-18T18:06:26.123Z,987.06
2017-08-18T18:07:26.155Z,987.00
2017-08-18T18:08:26.254Z,986.90
2017-08-18T18:09:26.108Z,986.88
2017-08-18T18:10:26.176Z,986.87
2017-08-18T18:11:26.088Z,986.83
2017-08-18T18:12:26.191Z,986.75
2017-08-18T18:13:25.736Z,986.79
2017-08-18T18:14:25.735Z,986.82
2017-08-18T18:15:25.726Z,986.83
2017-08-18T18:16:25.317Z,986.71
2017-08-18T18:17:25.374Z,986.70
2017-08-18T18:18:25.356Z,986.60
2017-08-18T18:19:25.368Z,986.53
2017-08-18T18:20:25.381Z,986.47
2017-08-18T18:21:25.725Z,986.54
2017-08-18T18:22:25.822Z,986.63
2017-08-18T18:23:26.210Z,986.78
2017-08-18T18:24:26.175Z,986.80
2017-08-18T18:25:26.349Z,986.76
2017-08-18T18:26:26.124Z,986.80
2017-08-18T18:27:26.233Z,986.83
2017-08-18T18:28:26.551Z,986.80
2017-08-18T18:29:26.263Z,986.80
2017-08-18T18:30:25.784Z,986.87
2017-08-18T18:31:25.764Z,986.89
2017-08-18T18:32:25.738Z,986.85
2017-08-18T18:33:25.796Z,986.85
2017-08-18T18:34:25.880Z,986.90
2017-08-18T18:35:25.321Z,986.85
2017-08-18T18:36:25.375Z,986.82
2017-08-18T18:37:25.379Z,986.83
2017-08-18T18:38:25.855Z,986.63
2017-08-18T18:39:25.868Z,986.62
2017-08-18T18:40:25.922Z,986.61
2017-08-18T18:41:26.181Z,986.69
2017-08-18T18:42:27.555Z,986.72
2017-08-18T18:43:26.361Z,986.69
2017-08-18T18:44:26.182Z,986.76
2017-08-18T18:45:26.260Z,986.75
2017-08-18T18:46:26.256Z,986.83
2017-08-18T18:47:26.256Z,986.81
2017-08-18T18:48:25.865Z,986.84
2017-08-18T18:49:31.506Z,986.76
2017-08-18T18:50:25.572Z,986.85
2017-08-18T18:51:26.289Z,986.93
2017-08-18T18:52:25.478Z,986.97
2017-08-18T18:53:25.496Z,987.05
2017-08-18T18:54:25.441Z,987.22
2017-08-18T18:55:25.503Z,987.36
2017-08-18T18:56:25.510Z,987.36
2017-08-18T18:57:25.878Z,987.39
2017-08-18T18:58:26.208Z,987.43
2017-08-18T18:59:26.230Z,987.34
2017-08-18T19:00:26.043Z,987.37
2017-08-18T19:01:26.308Z,987.49
2017-08-18T19:02:26.272Z,987.51
2017-08-18T19:03:26.255Z,987.51
2017-08-18T19:04:26.382Z,987.53
2017-08-18T19:05:26.558Z,987.59
2017-08-18T19:06:25.852Z,987.69
2017-08-18T19:07:25.887Z,987.71
2017-08-18T19:08:25.873Z,987.90
2017-08-18T19:09:25.474Z,987.93
2017-08-18T19:10:25.970Z,988.12
2017-08-18T19:11:25.524Z,988.27
2017-08-18T19:12:25.476Z,988.34
2017-08-18T19:13:25.512Z,988.37
2017-08-18T19:14:25.901Z,988.48
2017-08-18T19:15:25.985Z,988.47
2017-08-18T19:16:25.941Z,988.39
2017-08-18T19:17:26.033Z,988.30
2017-08-18T19:18:26.321Z,988.24
2017-08-18T19:19:26.352Z,988.17
2017-08-18T19:20:26.374Z,988.18
2017-08-18T19:21:26.329Z,988.05
2017-08-18T19:22:26.402Z,987.89
2017-08-18T19:23:25.922Z,987.86
2017-08-18T19:24:25.928Z,987.89
2017-08-18T19:25:26.030Z,987.84
2017-08-18T19:26:25.951Z,987.85
2017-08-18T19:27:25.525Z,987.85
2017-08-18T19:28:25.518Z,987.86
2017-08-18T19:29:25.615Z,987.84
2017-08-18T19:30:25.568Z,987.82
2017-08-18T19:31:25.490Z,987.78
2017-08-18T19:32:25.628Z,987.84
2017-08-18T19:33:25.598Z,987.86
2017-08-18T19:34:25.980Z,987.87
2017-08-18T19:35:26.369Z,987.83
2017-08-18T19:36:26.385Z,987.69
2017-08-18T19:37:26.364Z,987.70
2017-08-18T19:38:26.429Z,987.62
2017-08-18T19:39:26.326Z,987.58
2017-08-18T19:40:26.491Z,987.49
2017-08-18T19:41:26.573Z,987.60
2017-08-18T19:42:26.023Z,987.43
2017-08-18T19:43:26.022Z,987.31
2017-08-18T19:44:26.007Z,987.36
2017-08-18T19:45:26.093Z,987.35
2017-08-18T19:46:25.539Z,987.39
2017-08-18T19:47:25.658Z,987.40
2017-08-18T19:48:25.658Z,987.47
2017-08-18T19:49:25.589Z,987.46
2017-08-18T19:50:26.185Z,987.54
2017-08-18T19:51:26.068Z,987.57
2017-08-18T19:52:26.165Z,987.60
2017-08-18T19:53:26.479Z,987.56
2017-08-18T19:54:26.450Z,987.50
2017-08-18T19:55:26.493Z,987.45
2017-08-18T19:56:26.423Z,987.46
2017-08-18T19:57:26.551Z,987.52
2017-08-18T19:58:26.529Z,987.61
2017-08-18T19:59:25.980Z,987.57
2017-08-18T20:00:26.544Z,987.60
2017-08-18T20:01:26.026Z,987.65
2017-08-18T20:02:26.054Z,987.69
2017-08-18T20:03:25.648Z,987.75
2017-08-18T20:04:25.661Z,987.71